Time;durP1;ratioP1;P1;durP2;ratioP2;P2;SDS_P1;SDS_P2;PMS_P1;PMS_P2;Temp;Humidity;BMP_temperature;BMP_pressure;BME280_temperature;BME280_humidity;BME280_pressure;Samples;Min_cycle;Max_cycle;Signal;HPM_P1;HPM_P2
2022/11/23 03:48:06;;;;;;;2.83;0.20;;;6.30;91.50;;;;;;4952038;23;87786;-78
2022/11/23 03:50:32;;;;;;;1.33;0.20;;;6.20;91.70;;;;;;4807847;29;86326;-78
2022/11/23 03:52:58;;;;;;;1.50;0.13;;;6.10;91.70;;;;;;4809138;29;87313;-79
2022/11/23 03:55:24;;;;;;;1.58;0.10;;;6.10;91.60;;;;;;4806009;29;86921;-79
2022/11/23 03:57:52;;;;;;;2.50;0.10;;;6.10;91.70;;;;;;4792417;29;86403;-78
2022/11/23 04:00:18;;;;;;;1.30;0.10;;;6.00;91.70;;;;;;4803502;29;86948;-77
2022/11/23 04:02:44;;;;;;;1.20;0.10;;;6.00;91.70;;;;;;4806209;29;87547;-78
2022/11/23 04:05:10;;;;;;;1.42;0.10;;;6.00;91.80;;;;;;4791942;29;87404;-78
2022/11/23 04:07:36;;;;;;;1.38;0.10;;;6.00;91.70;;;;;;4808784;29;86739;-77
2022/11/23 04:10:02;;;;;;;1.45;0.10;;;6.00;91.70;;;;;;4808888;29;87130;-77
2022/11/23 04:12:28;;;;;;;1.85;0.10;;;6.00;91.60;;;;;;4809838;29;90385;-77
2022/11/23 04:14:55;;;;;;;2.53;0.10;;;6.00;91.60;;;;;;4799708;29;86594;-78
2022/11/23 04:17:20;;;;;;;1.67;0.10;;;6.00;91.40;;;;;;4800289;29;86573;-76
2022/11/23 04:19:46;;;;;;;2.10;0.10;;;6.00;91.20;;;;;;4807594;29;87524;-75
2022/11/23 04:22:11;;;;;;;2.15;0.10;;;6.00;91.20;;;;;;4797100;29;87091;-75
2022/11/23 04:24:37;;;;;;;2.50;0.20;;;6.00;91.20;;;;;;4803543;29;86719;-77
2022/11/23 04:27:03;;;;;;;2.63;0.13;;;6.00;91.20;;;;;;4806156;29;86273;-77
2022/11/23 04:29:28;;;;;;;1.70;0.10;;;6.00;91.50;;;;;;4808190;29;86420;-76
2022/11/23 04:31:54;;;;;;;1.10;0.20;;;6.00;91.40;;;;;;4806900;29;87366;-76
2022/11/23 04:34:20;;;;;;;2.20;0.10;;;6.00;91.50;;;;;;4819069;29;86391;-76
2022/11/23 04:36:45;;;;;;;1.27;0.20;;;6.00;91.60;;;;;;4803502;29;87383;-76
2022/11/23 04:39:12;;;;;;;2.67;0.30;;;5.90;91.70;;;;;;4803525;29;86957;-76
2022/11/23 04:41:38;;;;;;;2.35;0.10;;;5.90;91.80;;;;;;4807841;29;87380;-78
2022/11/23 04:44:04;;;;;;;2.92;0.20;;;5.80;91.90;;;;;;4803188;29;86956;-78
2022/11/23 04:46:30;;;;;;;2.90;0.20;;;5.80;92.00;;;;;;4809062;29;86919;-78
2022/11/23 04:48:56;;;;;;;1.13;0.20;;;5.70;92.20;;;;;;4794019;29;87227;-76
2022/11/23 04:51:22;;;;;;;2.35;0.30;;;5.60;92.50;;;;;;4777591;29;87157;-76
2022/11/23 04:53:48;;;;;;;2.05;0.35;;;5.50;92.90;;;;;;4780342;29;87384;-77
2022/11/23 04:56:13;;;;;;;2.50;0.50;;;5.50;93.10;;;;;;4791003;29;86140;-79
2022/11/23 04:58:39;;;;;;;2.67;0.45;;;5.40;93.40;;;;;;4774477;29;86707;-77
2022/11/23 05:01:05;;;;;;;5.53;0.80;;;5.30;93.60;;;;;;4780888;29;88597;-77
2022/11/23 05:03:33;;;;;;;2.28;0.55;;;5.30;93.80;;;;;;4782449;29;87638;-78
2022/11/23 05:06:00;;;;;;;3.28;0.80;;;5.20;94.00;;;;;;4782260;29;87308;-77
2022/11/23 05:08:26;;;;;;;6.15;0.60;;;5.20;94.10;;;;;;4803202;29;86293;-77
2022/11/23 05:10:52;;;;;;;3.97;0.52;;;5.20;94.20;;;;;;4790236;29;86898;-77
2022/11/23 05:13:18;;;;;;;5.63;0.60;;;5.20;94.40;;;;;;4788862;29;86932;-77
2022/11/23 05:15:43;;;;;;;3.17;0.50;;;5.20;94.20;;;;;;4789853;29;86803;-77
2022/11/23 05:18:11;;;;;;;2.65;0.65;;;5.10;94.30;;;;;;4789731;29;85530;-78
2022/11/23 05:20:36;;;;;;;2.58;0.40;;;5.10;94.20;;;;;;4784395;29;87159;-79
2022/11/23 05:23:03;;;;;;;2.65;0.45;;;5.10;94.30;;;;;;4789273;29;88203;-77
2022/11/23 05:25:29;;;;;;;3.35;0.60;;;5.00;94.40;;;;;;4777627;29;87496;-78
2022/11/23 05:27:54;;;;;;;4.18;0.70;;;5.00;94.60;;;;;;4780196;29;86193;-78
2022/11/23 05:30:20;;;;;;;3.95;0.73;;;5.00;94.50;;;;;;4787493;29;86708;-77
2022/11/23 05:32:46;;;;;;;7.57;0.90;;;5.00;94.50;;;;;;4791863;29;87105;-77
2022/11/23 05:35:12;;;;;;;3.85;1.35;;;4.90;94.70;;;;;;4788193;29;86239;-77
2022/11/23 05:37:38;;;;;;;6.70;1.52;;;4.90;95.10;;;;;;4784307;29;86267;-78
2022/11/23 05:40:04;;;;;;;4.90;1.08;;;4.80;95.20;;;;;;4788229;29;88768;-79
2022/11/23 05:42:31;;;;;;;3.60;1.30;;;4.80;95.70;;;;;;4789539;29;87371;-78
2022/11/23 05:44:56;;;;;;;7.22;1.33;;;4.70;95.90;;;;;;4783785;29;86677;-78
2022/11/23 05:47:22;;;;;;;7.85;1.13;;;4.60;96.20;;;;;;4778944;29;86442;-76
2022/11/23 05:49:49;;;;;;;7.95;1.48;;;4.60;96.30;;;;;;4780359;29;88265;-78
2022/11/23 05:52:15;;;;;;;4.97;1.52;;;4.50;96.40;;;;;;4789078;29;87198;-77
2022/11/23 05:54:40;;;;;;;6.13;1.70;;;4.50;96.60;;;;;;4781969;29;86596;-78
2022/11/23 05:57:06;;;;;;;6.75;1.70;;;4.40;96.70;;;;;;4786015;29;86825;-77
2022/11/23 05:59:32;;;;;;;5.40;1.40;;;4.40;96.90;;;;;;4788651;29;87878;-77
2022/11/23 06:01:57;;;;;;;5.65;1.55;;;4.40;97.00;;;;;;4787465;29;86266;-78
2022/11/23 06:04:23;;;;;;;6.82;2.42;;;4.40;97.00;;;;;;4785617;29;86974;-77
2022/11/23 06:06:49;;;;;;;6.88;2.00;;;4.30;97.00;;;;;;4781258;29;85580;-78
2022/11/23 06:09:14;;;;;;;4.88;1.90;;;4.20;97.30;;;;;;4778511;29;87461;-78
2022/11/23 06:11:40;;;;;;;6.88;1.95;;;4.20;97.20;;;;;;4787916;29;86612;-77
2022/11/23 06:14:07;;;;;;;6.32;2.30;;;4.20;97.50;;;;;;4777436;29;87843;-77
2022/11/23 06:16:32;;;;;;;5.53;1.30;;;4.20;97.70;;;;;;4782393;29;87082;-78
2022/11/23 06:18:58;;;;;;;6.55;1.50;;;4.20;97.70;;;;;;4780481;29;86893;-78
2022/11/23 06:21:23;;;;;;;4.63;1.38;;;4.20;97.60;;;;;;4794698;29;86979;-77
2022/11/23 06:23:49;;;;;;;4.32;1.20;;;4.20;97.80;;;;;;4797949;29;86293;-77
2022/11/23 06:26:15;;;;;;;5.10;1.40;;;4.20;97.30;;;;;;4787814;29;86403;-77
2022/11/23 06:28:41;;;;;;;4.57;1.05;;;4.20;97.50;;;;;;4789259;29;86928;-77
2022/11/23 06:31:06;;;;;;;6.50;1.02;;;4.20;97.50;;;;;;4790038;29;86251;-79
2022/11/23 06:33:35;;;;;;;7.45;0.75;;;4.20;97.20;;;;;;4790772;29;86756;-77
2022/11/23 06:36:02;;;;;;;5.95;0.80;;;4.30;97.50;;;;;;4786320;29;86411;-76
2022/11/23 06:38:28;;;;;;;2.60;0.57;;;4.30;97.10;;;;;;4801231;29;89006;-77
2022/11/23 06:40:58;;;;;;;4.22;0.80;;;4.40;96.80;;;;;;4784155;29;88151;-77
2022/11/23 06:43:24;;;;;;;2.95;0.60;;;4.40;97.00;;;;;;4791742;29;86830;-76
2022/11/23 06:45:50;;;;;;;2.88;0.55;;;4.50;96.60;;;;;;4791932;29;86659;-76
2022/11/23 06:48:16;;;;;;;3.05;0.60;;;4.50;96.20;;;;;;4790589;29;87062;-78
2022/11/23 06:50:41;;;;;;;6.47;0.63;;;4.50;96.20;;;;;;4796060;29;87055;-77
2022/11/23 06:53:11;;;;;;;2.17;0.50;;;4.60;96.10;;;;;;4791170;29;88093;-77
2022/11/23 06:55:36;;;;;;;4.15;0.52;;;4.70;95.70;;;;;;4789171;29;85538;-78
2022/11/23 06:58:02;;;;;;;3.25;0.50;;;4.70;95.50;;;;;;4788504;29;87358;-78
2022/11/23 07:00:28;;;;;;;4.00;0.75;;;4.70;95.30;;;;;;4791934;29;87086;-77
2022/11/23 07:02:54;;;;;;;2.83;0.50;;;4.80;95.10;;;;;;4788394;29;87459;-77
2022/11/23 07:05:21;;;;;;;5.65;0.77;;;4.90;94.70;;;;;;4788475;29;89840;-77
2022/11/23 07:07:47;;;;;;;4.20;0.85;;;5.00;94.30;;;;;;4796602;29;87331;-77
2022/11/23 07:10:13;;;;;;;4.78;0.55;;;5.10;94.00;;;;;;4792045;29;86827;-78
2022/11/23 07:12:39;;;;;;;4.80;0.57;;;5.50;93.70;;;;;;4795182;29;86966;-78
2022/11/23 07:15:06;;;;;;;5.45;0.75;;;6.40;92.10;;;;;;4791132;29;86340;-78
2022/11/23 07:17:31;;;;;;;3.58;0.50;;;7.40;89.90;;;;;;4790550;29;87176;-78
2022/11/23 07:19:57;;;;;;;3.85;0.52;;;8.80;83.00;;;;;;4794463;29;87203;-79
2022/11/23 07:22:23;;;;;;;4.05;0.40;;;10.00;77.70;;;;;;4784917;29;86760;-77
2022/11/23 07:24:48;;;;;;;6.03;0.40;;;11.10;73.30;;;;;;4789518;29;86986;-77
2022/11/23 07:27:16;;;;;;;3.05;0.35;;;11.90;69.00;;;;;;4787868;29;88109;-77
2022/11/23 07:29:41;;;;;;;3.17;0.60;;;12.30;68.40;;;;;;4789120;29;87117;-78
2022/11/23 07:32:07;;;;;;;3.28;0.75;;;12.60;66.70;;;;;;4787496;29;86990;-78
2022/11/23 07:34:33;;;;;;;3.47;0.60;;;13.00;65.60;;;;;;4786172;29;86432;-78
2022/11/23 07:36:59;;;;;;;3.92;0.73;;;13.30;63.70;;;;;;4788942;29;87713;-77
2022/11/23 07:39:24;;;;;;;2.90;0.63;;;13.10;63.80;;;;;;4782954;29;89426;-81
2022/11/23 07:41:50;;;;;;;3.60;0.73;;;12.70;65.30;;;;;;4795771;29;86954;-77
2022/11/23 07:44:16;;;;;;;2.60;0.73;;;13.10;64.30;;;;;;4792913;29;87757;-78
2022/11/23 07:46:41;;;;;;;6.28;0.73;;;12.80;63.70;;;;;;4784578;29;87255;-77
2022/11/23 07:49:07;;;;;;;3.47;0.70;;;11.80;67.10;;;;;;4787358;29;86981;-76
2022/11/23 07:51:33;;;;;;;5.63;0.95;;;11.20;68.70;;;;;;4784055;29;87694;-77
2022/11/23 07:53:58;;;;;;;8.18;0.65;;;10.50;70.50;;;;;;4788651;29;86693;-77
2022/11/23 07:56:24;;;;;;;4.97;0.60;;;10.00;72.50;;;;;;4789143;29;86733;-77
2022/11/23 07:58:50;;;;;;;3.40;0.65;;;9.50;74.50;;;;;;4795680;29;87027;-77
2022/11/23 08:01:17;;;;;;;7.72;0.70;;;9.20;75.30;;;;;;4785623;29;86527;-78
2022/11/23 08:03:44;;;;;;;4.13;0.80;;;9.00;76.40;;;;;;4787098;29;86316;-78
2022/11/23 08:06:10;;;;;;;7.95;1.00;;;8.60;77.70;;;;;;4778127;29;87568;-78
2022/11/23 08:08:37;;;;;;;4.68;0.77;;;8.40;78.40;;;;;;4788518;29;88863;-78
2022/11/23 08:11:04;;;;;;;3.40;0.50;;;8.30;79.10;;;;;;4788865;29;86298;-77
2022/11/23 08:13:31;;;;;;;2.40;0.45;;;8.30;78.10;;;;;;4787286;29;86850;-78
2022/11/23 08:15:56;;;;;;;7.55;0.60;;;8.30;78.00;;;;;;4787519;29;87762;-78
2022/11/23 08:18:26;;;;;;;4.10;0.65;;;8.50;77.30;;;;;;4787565;29;87727;-77
2022/11/23 08:20:52;;;;;;;3.78;0.30;;;8.80;77.00;;;;;;4788940;29;86722;-78
2022/11/23 08:23:18;;;;;;;9.57;0.60;;;9.80;75.00;;;;;;4787058;29;86691;-78
2022/11/23 08:25:44;;;;;;;3.17;0.60;;;12.40;67.30;;;;;;4781211;29;87672;-78
2022/11/23 08:28:10;;;;;;;2.53;0.40;;;14.80;60.40;;;;;;4787066;29;86920;-79
2022/11/23 08:30:35;;;;;;;5.07;0.47;;;15.70;57.00;;;;;;4794351;29;86970;-78
2022/11/23 08:33:05;;;;;;;3.70;0.40;;;15.20;56.40;;;;;;4786191;29;85597;-77
2022/11/23 08:35:39;;;;;;;5.28;0.60;;;14.40;58.10;;;;;;4785359;29;87621;-77
2022/11/23 08:38:06;;;;;;;2.72;0.50;;;13.60;59.20;;;;;;4779254;29;86752;-77
2022/11/23 08:40:32;;;;;;;2.08;0.20;;;13.30;60.40;;;;;;4791222;29;87681;-77
2022/11/23 08:42:58;;;;;;;3.20;0.40;;;13.10;59.40;;;;;;4788157;29;86879;-78
2022/11/23 08:45:24;;;;;;;3.15;0.30;;;12.70;60.00;;;;;;4787940;29;86509;-78
2022/11/23 08:47:51;;;;;;;2.60;0.22;;;11.80;62.10;;;;;;4788704;29;86868;-76
2022/11/23 08:50:20;;;;;;;1.75;0.17;;;11.00;64.00;;;;;;4786585;29;87609;-77
2022/11/23 08:52:45;;;;;;;1.65;0.20;;;10.10;65.50;;;;;;4787708;29;86988;-77
2022/11/23 08:55:11;;;;;;;2.13;0.20;;;9.50;68.00;;;;;;4785403;29;86866;-78
2022/11/23 08:57:37;;;;;;;1.75;0.20;;;9.20;69.00;;;;;;4785781;29;87479;-77
2022/11/23 09:00:06;;;;;;;2.80;0.20;;;9.00;70.30;;;;;;4788821;29;86270;-77
2022/11/23 09:02:32;;;;;;;3.63;0.30;;;8.70;70.70;;;;;;4789229;29;86267;-77
2022/11/23 09:04:57;;;;;;;4.50;0.30;;;8.60;70.60;;;;;;4787224;29;87960;-78
2022/11/23 09:07:23;;;;;;;3.97;0.50;;;8.50;71.80;;;;;;4786940;29;87691;-76
2022/11/23 09:09:49;;;;;;;3.58;0.30;;;8.50;71.60;;;;;;4785196;29;86824;-77
2022/11/23 09:12:14;;;;;;;3.78;0.28;;;8.50;72.10;;;;;;4785564;29;87840;-77
2022/11/23 09:14:40;;;;;;;2.00;0.25;;;8.40;72.30;;;;;;4788849;29;87603;-76
2022/11/23 09:17:05;;;;;;;2.55;0.20;;;9.00;71.70;;;;;;4786398;29;86344;-77
2022/11/23 09:19:31;;;;;;;2.00;0.30;;;9.60;69.30;;;;;;4786092;29;86282;-78
2022/11/23 09:21:58;;;;;;;5.03;0.50;;;9.70;69.50;;;;;;4784257;29;86101;-77
2022/11/23 09:24:24;;;;;;;2.15;0.28;;;10.00;69.20;;;;;;4787704;29;87199;-79
2022/11/23 09:26:50;;;;;;;6.78;0.73;;;10.40;68.80;;;;;;4787223;29;86389;-79
2022/11/23 09:29:15;;;;;;;3.22;0.43;;;11.20;66.30;;;;;;4789445;29;88317;-78
2022/11/23 09:31:41;;;;;;;3.63;0.40;;;11.90;64.20;;;;;;4783369;29;87165;-77
2022/11/23 09:34:09;;;;;;;1.98;0.32;;;11.60;64.50;;;;;;4788773;29;87417;-78
2022/11/23 09:36:34;;;;;;;2.10;0.60;;;11.50;65.60;;;;;;4781593;29;87209;-78
2022/11/23 09:39:00;;;;;;;3.40;0.60;;;11.70;64.60;;;;;;4788559;29;86800;-78
2022/11/23 09:41:41;;;;;;;1.80;0.32;;;12.00;63.20;;;;;;4790509;29;87244;-78
2022/11/23 09:44:44;;;;;;;1.60;0.32;;;13.10;61.50;;;;;;4779832;29;86974;-78
2022/11/23 09:47:15;;;;;;;3.53;0.32;;;14.20;58.70;;;;;;4787222;29;87387;-78
2022/11/23 09:50:02;;;;;;;4.13;0.50;;;14.70;57.80;;;;;;4788539;29;86321;-78
2022/11/23 09:52:30;;;;;;;2.72;0.32;;;15.80;55.50;;;;;;4788159;29;86631;-78
2022/11/23 09:54:59;;;;;;;3.80;0.30;;;17.40;51.00;;;;;;4787670;29;88196;-77
2022/11/23 09:57:27;;;;;;;;;;;17.60;50.20;;;;;;4784598;29;88478;-79
2022/11/23 10:00:03;;;;;;;1.98;0.32;;;16.50;49.80;;;;;;4788731;29;86313;-76
2022/11/23 10:02:31;;;;;;;2.25;0.22;;;14.80;53.10;;;;;;4793570;29;86312;-79
2022/11/23 10:04:59;;;;;;;4.38;0.32;;;13.20;56.80;;;;;;4793045;29;87425;-77
2022/11/23 10:07:27;;;;;;;3.25;0.28;;;12.10;60.00;;;;;;4791826;29;87052;-78
2022/11/23 10:09:56;;;;;;;2.03;0.20;;;11.50;61.30;;;;;;4785413;29;86310;-79
2022/11/23 10:12:27;;;;;;;5.65;0.38;;;11.00;62.90;;;;;;4786636;29;85637;-78
2022/11/23 10:14:59;;;;;;;2.47;0.30;;;10.50;63.90;;;;;;4786342;29;88870;-77
2022/11/23 10:17:55;;;;;;;1.33;0.30;;;10.20;65.60;;;;;;4779306;29;87485;-78
2022/11/23 10:20:45;;;;;;;3.13;0.20;;;10.20;66.90;;;;;;4785651;29;87351;-78
2022/11/23 10:23:34;;;;;;;2.08;0.20;;;10.20;65.20;;;;;;4784978;29;86634;-78
2022/11/23 10:25:59;;;;;;;2.42;0.10;;;9.90;66.00;;;;;;4783463;29;87386;-77
2022/11/23 10:28:29;;;;;;;2.15;0.22;;;9.80;65.80;;;;;;4788279;29;86836;-78
2022/11/23 10:31:12;;;;;;;4.05;0.20;;;9.70;66.80;;;;;;4794300;29;86302;-78
2022/11/23 10:33:47;;;;;;;4.18;0.20;;;9.60;66.40;;;;;;4787044;29;86787;-79
2022/11/23 10:36:13;;;;;;;2.83;0.20;;;9.40;67.00;;;;;;4786995;29;87299;-78
2022/11/23 10:38:40;;;;;;;2.35;0.20;;;9.40;67.70;;;;;;4789806;29;86314;-78
2022/11/23 10:41:12;;;;;;;1.83;0.30;;;9.30;67.30;;;;;;4788529;29;86947;-78
2022/11/23 10:44:03;;;;;;;2.83;0.20;;;9.30;66.80;;;;;;4790719;29;86369;-78
2022/11/23 10:46:38;;;;;;;2.22;0.10;;;9.20;68.80;;;;;;4756989;29;88399;-77
2022/11/23 10:49:23;;;;;;;1.48;0.38;;;9.20;68.30;;;;;;4783986;29;87791;-78
2022/11/23 10:52:03;;;;;;;0.95;0.10;;;9.20;68.40;;;;;;4778661;29;86554;-78
2022/11/23 10:54:34;;;;;;;3.95;0.10;;;9.30;66.40;;;;;;4781761;29;87963;-79
2022/11/23 10:57:02;;;;;;;1.15;0.10;;;9.30;67.30;;;;;;4789758;29;87444;-79
2022/11/23 10:59:30;;;;;;;1.15;0.10;;;9.40;66.70;;;;;;4780981;29;88758;-78
2022/11/23 11:02:18;;;;;;;1.10;0.10;;;9.40;66.70;;;;;;4782850;29;86468;-78
2022/11/23 11:04:45;;;;;;;1.45;0.10;;;9.40;66.00;;;;;;4782290;29;85964;-78
2022/11/23 11:07:22;;;;;;;2.53;0.10;;;9.40;66.10;;;;;;4786330;29;87524;-77
2022/11/23 11:09:53;;;;;;;1.58;0.10;;;9.40;66.50;;;;;;4787261;29;87026;-77
2022/11/23 11:12:19;;;;;;;2.38;0.10;;;9.50;64.30;;;;;;4789818;29;87949;-78
2022/11/23 11:15:02;;;;;;;2.65;0.10;;;9.40;66.00;;;;;;4781188;29;87018;-80
2022/11/23 11:17:32;;;;;;;2.25;0.10;;;9.40;64.90;;;;;;4788656;29;86775;-78
2022/11/23 11:19:58;;;;;;;1.88;0.25;;;9.50;65.50;;;;;;4785220;29;88418;-78
2022/11/23 11:22:42;;;;;;;1.88;0.13;;;9.50;64.20;;;;;;4784292;29;87221;-78
2022/11/23 11:25:28;;;;;;;2.88;0.10;;;9.50;66.30;;;;;;4785074;29;86917;-78
2022/11/23 11:27:53;;;;;;;1.88;0.10;;;9.50;66.50;;;;;;4781194;29;86657;-80
2022/11/23 11:30:24;;;;;;;3.47;0.50;;;9.50;66.50;;;;;;4783521;29;86505;-81
2022/11/23 11:33:01;;;;;;;;;;;9.60;66.00;;;;;;4783910;29;86908;-80
2022/11/23 11:35:41;;;;;;;9.38;0.10;;;9.60;65.10;;;;;;4782922;29;86970;-78
2022/11/23 11:38:26;;;;;;;2.53;0.10;;;9.60;64.50;;;;;;4780978;29;89003;-77
2022/11/23 11:40:52;;;;;;;1.60;0.10;;;9.60;65.30;;;;;;4783422;29;88248;-78
2022/11/23 11:43:44;;;;;;;2.25;0.20;;;9.60;65.50;;;;;;4782370;29;86961;-77
2022/11/23 11:46:21;;;;;;;4.43;0.10;;;9.60;65.00;;;;;;4766942;29;87269;-79
2022/11/23 11:49:14;;;;;;;1.10;0.05;;;9.60;64.10;;;;;;4782797;29;87407;-78
2022/11/23 11:51:45;;;;;;;1.83;0.10;;;9.60;64.30;;;;;;4788050;29;86705;-78
2022/11/23 11:54:24;;;;;;;0.65;0.00;;;9.50;63.50;;;;;;4787043;29;87458;-77
2022/11/23 11:56:53;;;;;;;0.63;0.10;;;9.60;64.30;;;;;;4784657;29;86720;-77
2022/11/23 11:59:46;;;;;;;1.75;0.20;;;9.60;64.70;;;;;;4784573;29;88407;-79
2022/11/23 12:02:21;;;;;;;1.48;0.10;;;9.70;64.00;;;;;;4792805;29;87233;-81
2022/11/23 12:05:20;;;;;;;1.98;0.10;;;9.70;63.80;;;;;;4790245;29;87506;-80
2022/11/23 12:07:46;;;;;;;1.15;0.10;;;9.70;62.80;;;;;;4794594;29;86967;-80
2022/11/23 12:10:27;;;;;;;1.02;0.10;;;9.70;63.30;;;;;;4790437;29;88133;-79
2022/11/23 12:12:55;;;;;;;1.58;0.10;;;9.70;63.40;;;;;;4785332;29;87469;-80
2022/11/23 12:15:39;;;;;;;1.08;0.10;;;9.70;64.20;;;;;;4790523;29;86996;-78
2022/11/23 12:18:18;;;;;;;3.28;0.25;;;9.70;63.70;;;;;;4787010;29;86309;-79
2022/11/23 12:20:55;;;;;;;1.15;0.10;;;9.70;63.20;;;;;;4779742;29;87344;-79
2022/11/23 12:23:43;;;;;;;1.08;0.10;;;9.80;64.00;;;;;;4784256;29;88112;-78
2022/11/23 12:26:26;;;;;;;1.08;0.10;;;9.80;63.20;;;;;;4784493;29;86381;-80
2022/11/23 12:28:58;;;;;;;2.00;0.10;;;9.90;64.20;;;;;;4784281;29;86443;-82
2022/11/23 12:31:46;;;;;;;1.27;0.10;;;9.90;62.20;;;;;;4778501;29;88831;-78
2022/11/23 12:34:14;;;;;;;3.40;0.10;;;9.90;62.40;;;;;;4789024;29;87321;-78
2022/11/23 12:37:07;;;;;;;3.55;0.10;;;10.00;62.80;;;;;;4784415;29;86622;-79
2022/11/23 12:40:13;;;;;;;2.85;0.10;;;10.00;62.80;;;;;;4782160;29;86744;-80
2022/11/23 12:42:51;;;;;;;4.47;0.10;;;10.00;63.00;;;;;;4787254;29;86927;-80
2022/11/23 12:45:42;;;;;;;2.78;0.10;;;10.00;62.10;;;;;;4788525;29;86397;-79
2022/11/23 12:48:23;;;;;;;3.22;0.10;;;10.10;63.70;;;;;;4791292;29;86567;-78
2022/11/23 12:50:51;;;;;;;2.83;0.03;;;10.10;62.50;;;;;;4790290;29;85465;-78
2022/11/23 12:53:20;;;;;;;3.05;0.10;;;10.10;62.60;;;;;;4790978;29;86900;-78
2022/11/23 12:56:38;;;;;;;3.28;0.10;;;10.10;64.40;;;;;;4789394;29;87452;-79
2022/11/23 12:59:07;;;;;;;2.30;0.08;;;10.10;62.60;;;;;;4729548;29;87727;-78
2022/11/23 13:01:43;;;;;;;1.48;0.10;;;10.10;61.40;;;;;;4787039;29;86722;-81
2022/11/23 13:04:36;;;;;;;1.92;0.10;;;10.20;62.30;;;;;;4791299;29;87090;-80
2022/11/23 13:07:16;;;;;;;1.10;0.10;;;10.20;62.20;;;;;;4791341;29;87050;-80
2022/11/23 13:10:14;;;;;;;2.15;0.10;;;10.20;60.90;;;;;;4775898;29;86749;-79
2022/11/23 13:13:04;;;;;;;1.33;0.00;;;10.20;61.50;;;;;;4783098;29;86810;-80
2022/11/23 13:16:03;;;;;;;1.05;0.03;;;10.20;60.00;;;;;;4784295;29;86859;-80
2022/11/23 13:18:32;;;;;;;1.98;0.13;;;10.20;60.60;;;;;;4783195;29;87457;-80
2022/11/23 13:21:21;;;;;;;1.05;0.00;;;10.30;61.60;;;;;;4791786;29;86474;-80
2022/11/23 13:23:47;;;;;;;4.53;0.10;;;10.30;63.10;;;;;;4791544;29;86214;-80
2022/11/23 13:26:14;;;;;;;0.63;0.10;;;10.30;61.20;;;;;;4788756;29;87782;-81
2022/11/23 13:28:40;;;;;;;0.68;0.03;;;10.40;60.20;;;;;;4791140;29;87660;-80
2022/11/23 13:31:15;;;;;;;0.50;0.00;;;10.30;60.70;;;;;;4790519;29;86308;-80
2022/11/23 13:33:49;;;;;;;1.60;0.20;;;10.40;61.00;;;;;;4790648;29;86539;-80
2022/11/23 13:36:30;;;;;;;1.75;0.00;;;10.40;60.70;;;;;;4788006;29;86846;-78
2022/11/23 13:38:57;;;;;;;1.65;0.10;;;10.40;61.20;;;;;;4786333;29;87401;-77
2022/11/23 13:41:40;;;;;;;2.70;0.00;;;10.40;61.50;;;;;;4788081;29;86636;-80
2022/11/23 13:44:32;;;;;;;0.90;0.00;;;10.40;61.50;;;;;;4789634;29;85979;-79
2022/11/23 13:46:58;;;;;;;0.50;0.00;;;10.40;59.80;;;;;;4784713;29;87683;-80
2022/11/23 13:49:44;;;;;;;0.57;0.00;;;10.40;60.60;;;;;;4776772;29;87075;-81
2022/11/23 13:52:22;;;;;;;1.88;0.05;;;10.30;59.80;;;;;;4790479;29;87193;-79
2022/11/23 13:55:03;;;;;;;1.20;0.20;;;10.30;60.10;;;;;;4788549;29;86411;-80
2022/11/23 13:57:29;;;;;;;0.60;0.00;;;10.20;59.70;;;;;;4786078;29;87052;-79
2022/11/23 14:00:36;;;;;;;2.28;0.20;;;10.30;59.90;;;;;;4782168;29;87540;-79
2022/11/23 14:03:40;;;;;;;2.13;0.00;;;10.20;59.70;;;;;;4759525;29;86837;-80
2022/11/23 14:06:24;;;;;;;2.45;0.00;;;10.20;58.90;;;;;;4786562;29;86709;-79
2022/11/23 14:09:16;;;;;;;2.78;0.10;;;10.20;60.40;;;;;;4783754;29;87759;-80
2022/11/23 14:12:00;;;;;;;1.35;0.10;;;10.20;60.50;;;;;;4785060;29;86651;-80
2022/11/23 14:14:34;;;;;;;2.42;0.10;;;10.20;59.80;;;;;;4789045;29;86283;-79
2022/11/23 14:17:25;;;;;;;1.30;0.22;;;10.20;60.00;;;;;;4782480;29;86683;-79
2022/11/23 14:20:22;;;;;;;0.57;0.00;;;10.20;60.20;;;;;;4789430;29;88380;-78
2022/11/23 14:23:25;;;;;;;1.00;0.00;;;10.10;59.70;;;;;;4788248;29;88318;-80
2022/11/23 14:25:54;;;;;;;1.50;0.00;;;10.10;59.20;;;;;;4785766;29;86705;-80
2022/11/23 14:28:34;;;;;;;2.20;0.00;;;10.10;59.00;;;;;;4791090;29;87002;-80
2022/11/23 14:31:33;;;;;;;1.17;0.10;;;10.00;59.80;;;;;;4789926;29;88229;-79
2022/11/23 14:34:30;;;;;;;4.53;0.13;;;9.90;60.20;;;;;;4780871;29;87357;-79
2022/11/23 14:37:16;;;;;;;2.45;0.10;;;9.80;60.80;;;;;;4789874;29;86589;-79
2022/11/23 14:39:57;;;;;;;5.00;0.20;;;9.70;61.20;;;;;;4770417;29;86077;-80
2022/11/23 14:42:27;;;;;;;4.25;0.20;;;9.80;60.90;;;;;;4791320;29;87373;-79
2022/11/23 14:44:54;;;;;;;5.63;0.20;;;9.70;62.20;;;;;;4779628;29;87187;-80
2022/11/23 14:47:29;;;;;;;1.90;0.10;;;9.80;61.90;;;;;;4789380;29;87443;-79
2022/11/23 14:49:55;;;;;;;0.93;0.00;;;9.80;63.20;;;;;;4788551;29;87088;-79
2022/11/23 14:52:23;;;;;;;3.65;0.10;;;9.80;60.90;;;;;;4791754;29;87268;-78
2022/11/23 14:54:54;;;;;;;1.00;0.10;;;9.90;60.80;;;;;;4787711;29;86155;-80
2022/11/23 14:57:22;;;;;;;2.05;0.00;;;9.90;60.40;;;;;;4793520;29;86234;-78
2022/11/23 15:00:00;;;;;;;2.97;0.10;;;9.90;61.10;;;;;;4793020;29;86236;-79
2022/11/23 15:02:39;;;;;;;1.00;0.10;;;9.90;60.00;;;;;;4791418;29;86711;-79
2022/11/23 15:05:10;;;;;;;5.43;0.20;;;9.90;60.20;;;;;;4791930;29;86978;-80
2022/11/23 15:07:53;;;;;;;1.35;0.10;;;10.00;60.40;;;;;;4784361;29;86464;-79
2022/11/23 15:10:29;;;;;;;2.45;0.10;;;9.90;60.20;;;;;;4788626;29;86692;-79
2022/11/23 15:12:54;;;;;;;8.10;0.20;;;9.90;60.50;;;;;;4788111;29;88011;-78
2022/11/23 15:15:25;;;;;;;3.70;0.10;;;9.90;60.70;;;;;;4788869;29;88002;-78
2022/11/23 15:17:51;;;;;;;3.53;0.10;;;9.90;60.70;;;;;;4792066;29;87030;-78
2022/11/23 15:20:17;;;;;;;3.92;0.10;;;9.90;60.40;;;;;;4791543;29;86858;-79
2022/11/23 15:22:44;;;;;;;1.50;0.10;;;9.90;60.70;;;;;;4786791;29;86828;-79
2022/11/23 15:25:17;;;;;;;3.33;0.10;;;9.90;61.30;;;;;;4797450;29;87198;-78
2022/11/23 15:27:43;;;;;;;0.98;0.20;;;9.90;62.20;;;;;;4779641;29;86754;-78
2022/11/23 15:30:38;;;;;;;2.88;0.00;;;9.80;60.60;;;;;;4792183;29;85996;-79
2022/11/23 15:33:10;;;;;;;1.35;0.10;;;9.70;61.60;;;;;;4782120;29;86737;-79
2022/11/23 15:35:38;;;;;;;4.28;0.13;;;9.60;60.80;;;;;;4787242;29;90447;-78
2022/11/23 15:38:10;;;;;;;4.07;0.30;;;9.60;61.80;;;;;;4788846;29;87998;-79
2022/11/23 15:40:39;;;;;;;1.10;0.10;;;9.50;61.40;;;;;;4788142;29;87365;-78
2022/11/23 15:43:10;;;;;;;0.73;0.10;;;9.50;61.40;;;;;;4776504;29;87145;-78
2022/11/23 15:45:36;;;;;;;1.65;0.10;;;9.50;62.50;;;;;;4786940;29;88176;-78
2022/11/23 15:48:04;;;;;;;2.65;0.10;;;9.40;61.80;;;;;;4785277;29;86286;-79
2022/11/23 15:50:29;;;;;;;6.18;0.38;;;9.40;61.30;;;;;;4786614;29;87136;-80
2022/11/23 15:52:59;;;;;;;1.42;0.10;;;9.40;61.50;;;;;;4792205;29;86869;-79
2022/11/23 15:55:25;;;;;;;2.25;0.10;;;9.40;61.40;;;;;;4784822;29;86361;-78
2022/11/23 15:57:55;;;;;;;3.83;0.10;;;9.30;61.60;;;;;;4785816;29;87199;-78
2022/11/23 16:00:24;;;;;;;2.58;0.20;;;9.30;61.20;;;;;;4799130;29;87177;-79
2022/11/23 16:02:51;;;;;;;1.70;0.10;;;9.30;61.70;;;;;;4789909;29;88023;-78
2022/11/23 16:05:22;;;;;;;5.20;0.20;;;9.30;62.10;;;;;;4790451;29;88106;-79
2022/11/23 16:07:59;;;;;;;2.75;0.17;;;9.30;62.30;;;;;;4787919;29;87384;-81
2022/11/23 16:10:29;;;;;;;0.80;0.10;;;9.30;64.60;;;;;;4790737;29;86648;-82
2022/11/23 16:12:56;;;;;;;1.10;0.10;;;9.20;62.10;;;;;;4791965;29;87362;-80
2022/11/23 16:15:29;;;;;;;3.80;0.10;;;9.20;61.90;;;;;;4790038;29;86915;-80
2022/11/23 16:17:55;;;;;;;8.35;2.22;;;9.20;61.90;;;;;;4786952;29;86249;-83
2022/11/23 16:20:23;;;;;;;6.30;2.25;;;9.20;62.40;;;;;;4791457;29;85647;-83
2022/11/23 16:22:50;;;;;;;4.78;1.10;;;9.20;62.60;;;;;;4792758;29;86771;-83
2022/11/23 16:25:35;;;;;;;5.75;0.75;;;9.10;62.20;;;;;;4790844;29;86860;-83
2022/11/23 16:28:13;;;;;;;1.90;0.30;;;9.10;62.80;;;;;;4790311;29;87211;-83
2022/11/23 16:30:41;;;;;;;2.05;0.30;;;9.10;62.80;;;;;;4789030;29;86591;-83
2022/11/23 16:33:14;;;;;;;11.77;0.60;;;9.10;62.40;;;;;;4789045;29;87705;-82
2022/11/23 16:35:40;;;;;;;7.80;2.45;;;9.10;62.20;;;;;;4784047;29;86749;-83
2022/11/23 16:38:05;;;;;;;9.60;2.60;;;9.10;62.50;;;;;;4781918;29;86866;-83
2022/11/23 16:40:32;;;;;;;7.13;2.00;;;9.10;62.20;;;;;;4799784;29;86291;-87
2022/11/23 16:42:58;;;;;;;2.00;0.50;;;9.10;62.20;;;;;;4791912;29;87476;-87
2022/11/23 16:45:25;;;;;;;2.20;0.55;;;9.10;62.80;;;;;;4793342;29;86944;-88
2022/11/23 16:47:52;;;;;;;6.80;1.50;;;9.10;62.70;;;;;;4788864;29;86647;-87
2022/11/23 16:50:18;;;;;;;4.15;1.05;;;9.10;62.20;;;;;;4790137;29;86971;-87
2022/11/23 16:52:43;;;;;;;2.60;0.30;;;9.10;62.20;;;;;;4792382;29;88693;-87
2022/11/23 16:55:10;;;;;;;4.65;0.50;;;9.10;62.00;;;;;;4799809;29;87867;-85
2022/11/23 16:57:36;;;;;;;5.22;0.70;;;9.10;62.10;;;;;;4799514;29;86805;-87
2022/11/23 17:00:05;;;;;;;4.53;0.40;;;9.10;62.40;;;;;;4792029;29;87605;-87
2022/11/23 17:02:30;;;;;;;2.95;0.38;;;9.10;62.70;;;;;;4792083;29;87760;-87
2022/11/23 17:04:56;;;;;;;3.42;0.25;;;9.20;62.80;;;;;;4788343;29;86345;-88